sensor_id;sensor_type;location;lat;lon;timestamp;temperature;humidity
11748;DHT22;5931;48.832;9.072;2024-02-28T00:01:53;7.00;99.90
11748;DHT22;5931;48.832;9.072;2024-02-28T00:04:19;7.00;99.90
11748;DHT22;5931;48.832;9.072;2024-02-28T00:06:45;6.90;99.90
11748;DHT22;5931;48.832;9.072;2024-02-28T00:09:13;6.90;99.90
11748;DHT22;5931;48.832;9.072;2024-02-28T00:11:46;6.80;99.90
11748;DHT22;5931;48.832;9.072;2024-02-28T00:14:13;6.70;99.90
11748;DHT22;5931;48.832;9.072;2024-02-28T00:16:42;6.60;99.90
11748;DHT22;5931;48.832;9.072;2024-02-28T00:19:09;6.50;99.90
11748;DHT22;5931;48.832;9.072;2024-02-28T00:21:35;6.40;99.90
11748;DHT22;5931;48.832;9.072;2024-02-28T00:24:00;6.20;99.90
11748;DHT22;5931;48.832;9.072;2024-02-28T00:26:26;6.10;99.90
11748;DHT22;5931;48.832;9.072;2024-02-28T00:28:52;5.90;99.90
11748;DHT22;5931;48.832;9.072;2024-02-28T00:31:19;5.90;99.90
11748;DHT22;5931;48.832;9.072;2024-02-28T00:33:45;5.90;99.90
11748;DHT22;5931;48.832;9.072;2024-02-28T00:36:10;5.80;99.90
11748;DHT22;5931;48.832;9.072;2024-02-28T00:38:36;5.90;99.90
11748;DHT22;5931;48.832;9.072;2024-02-28T00:41:02;5.80;99.90
11748;DHT22;5931;48.832;9.072;2024-02-28T00:43:28;5.80;99.90
11748;DHT22;5931;48.832;9.072;2024-02-28T00:45:54;5.90;99.90
11748;DHT22;5931;48.832;9.072;2024-02-28T00:48:22;6.00;99.90
11748;DHT22;5931;48.832;9.072;2024-02-28T00:50:48;6.10;99.90
11748;DHT22;5931;48.832;9.072;2024-02-28T00:53:13;6.10;99.90
11748;DHT22;5931;48.832;9.072;2024-02-28T00:55:39;6.10;99.90
11748;DHT22;5931;48.832;9.072;2024-02-28T00:58:05;6.20;99.90
11748;DHT22;5931;48.832;9.072;2024-02-28T01:00:31;6.20;99.90
11748;DHT22;5931;48.832;9.072;2024-02-28T01:02:56;6.20;99.90
11748;DHT22;5931;48.832;9.072;2024-02-28T01:05:22;6.20;99.90
11748;DHT22;5931;48.832;9.072;2024-02-28T01:07:48;6.20;99.90
11748;DHT22;5931;48.832;9.072;2024-02-28T01:10:14;6.20;99.90
11748;DHT22;5931;48.832;9.072;2024-02-28T01:12:40;6.20;99.90
11748;DHT22;5931;48.832;9.072;2024-02-28T01:15:06;6.20;99.90
11748;DHT22;5931;48.832;9.072;2024-02-28T01:17:32;6.20;99.90
11748;DHT22;5931;48.832;9.072;2024-02-28T01:19:58;6.20;99.90
11748;DHT22;5931;48.832;9.072;2024-02-28T01:22:24;6.20;99.90
11748;DHT22;5931;48.832;9.072;2024-02-28T01:24:50;6.20;99.90
11748;DHT22;5931;48.832;9.072;2024-02-28T01:27:15;6.10;99.90
11748;DHT22;5931;48.832;9.072;2024-02-28T01:29:41;6.10;99.90
11748;DHT22;5931;48.832;9.072;2024-02-28T01:32:07;6.00;99.90
11748;DHT22;5931;48.832;9.072;2024-02-28T01:34:33;6.00;99.90
11748;DHT22;5931;48.832;9.072;2024-02-28T01:36:58;6.00;99.90
11748;DHT22;5931;48.832;9.072;2024-02-28T01:39:24;6.00;99.90
11748;DHT22;5931;48.832;9.072;2024-02-28T01:41:54;6.00;99.90
11748;DHT22;5931;48.832;9.072;2024-02-28T01:44:20;6.00;99.90
11748;DHT22;5931;48.832;9.072;2024-02-28T01:46:46;6.00;99.90
11748;DHT22;5931;48.832;9.072;2024-02-28T01:49:13;6.00;99.90
11748;DHT22;5931;48.832;9.072;2024-02-28T01:51:41;6.00;99.90
11748;DHT22;5931;48.832;9.072;2024-02-28T01:54:07;6.00;99.90
11748;DHT22;5931;48.832;9.072;2024-02-28T01:56:34;6.00;99.90
11748;DHT22;5931;48.832;9.072;2024-02-28T01:59:00;6.00;99.90
11748;DHT22;5931;48.832;9.072;2024-02-28T02:01:27;6.00;99.90
11748;DHT22;5931;48.832;9.072;2024-02-28T02:03:54;6.00;99.90
11748;DHT22;5931;48.832;9.072;2024-02-28T02:06:20;5.90;99.90
11748;DHT22;5931;48.832;9.072;2024-02-28T02:08:46;6.00;99.90
11748;DHT22;5931;48.832;9.072;2024-02-28T02:11:15;5.90;99.90
11748;DHT22;5931;48.832;9.072;2024-02-28T02:13:50;6.00;99.90
11748;DHT22;5931;48.832;9.072;2024-02-28T02:16:18;6.00;99.90
11748;DHT22;5931;48.832;9.072;2024-02-28T02:18:46;6.00;99.90
11748;DHT22;5931;48.832;9.072;2024-02-28T02:21:17;6.00;99.90
11748;DHT22;5931;48.832;9.072;2024-02-28T02:23:43;6.10;99.90
11748;DHT22;5931;48.832;9.072;2024-02-28T02:26:09;6.10;99.90
11748;DHT22;5931;48.832;9.072;2024-02-28T02:28:35;6.00;99.90
11748;DHT22;5931;48.832;9.072;2024-02-28T02:31:00;6.00;99.90
11748;DHT22;5931;48.832;9.072;2024-02-28T02:33:26;6.10;99.90
11748;DHT22;5931;48.832;9.072;2024-02-28T02:35:53;6.10;99.90
11748;DHT22;5931;48.832;9.072;2024-02-28T02:38:19;6.10;99.90
11748;DHT22;5931;48.832;9.072;2024-02-28T02:40:51;6.00;99.90
11748;DHT22;5931;48.832;9.072;2024-02-28T02:43:18;6.00;99.90
11748;DHT22;5931;48.832;9.072;2024-02-28T02:45:44;6.00;99.90
11748;DHT22;5931;48.832;9.072;2024-02-28T02:48:10;6.00;99.90
11748;DHT22;5931;48.832;9.072;2024-02-28T02:50:36;6.00;99.90
11748;DHT22;5931;48.832;9.072;2024-02-28T02:53:03;6.00;99.90
11748;DHT22;5931;48.832;9.072;2024-02-28T02:55:29;6.10;99.90
11748;DHT22;5931;48.832;9.072;2024-02-28T02:57:55;6.10;99.90
11748;DHT22;5931;48.832;9.072;2024-02-28T03:00:21;6.10;99.90
11748;DHT22;5931;48.832;9.072;2024-02-28T03:02:47;6.10;99.90
11748;DHT22;5931;48.832;9.072;2024-02-28T03:05:13;6.10;99.90
11748;DHT22;5931;48.832;9.072;2024-02-28T03:07:39;6.10;99.90
11748;DHT22;5931;48.832;9.072;2024-02-28T03:10:06;6.10;99.90
11748;DHT22;5931;48.832;9.072;2024-02-28T03:12:32;6.00;99.90
11748;DHT22;5931;48.832;9.072;2024-02-28T03:14:58;6.00;99.90
11748;DHT22;5931;48.832;9.072;2024-02-28T03:17:24;5.90;99.90
11748;DHT22;5931;48.832;9.072;2024-02-28T03:19:49;5.90;99.90
11748;DHT22;5931;48.832;9.072;2024-02-28T03:22:15;5.90;99.90
11748;DHT22;5931;48.832;9.072;2024-02-28T03:24:41;5.90;99.90
11748;DHT22;5931;48.832;9.072;2024-02-28T03:27:07;5.90;99.90
11748;DHT22;5931;48.832;9.072;2024-02-28T03:29:34;5.90;99.90
11748;DHT22;5931;48.832;9.072;2024-02-28T03:32:00;5.90;99.90
11748;DHT22;5931;48.832;9.072;2024-02-28T03:34:25;5.90;99.90
11748;DHT22;5931;48.832;9.072;2024-02-28T03:36:51;5.90;99.90
11748;DHT22;5931;48.832;9.072;2024-02-28T03:39:17;5.90;99.90
11748;DHT22;5931;48.832;9.072;2024-02-28T03:41:43;5.90;99.90
11748;DHT22;5931;48.832;9.072;2024-02-28T03:44:08;5.80;99.90
11748;DHT22;5931;48.832;9.072;2024-02-28T03:46:34;5.80;99.90
11748;DHT22;5931;48.832;9.072;2024-02-28T03:49:00;5.90;99.90
11748;DHT22;5931;48.832;9.072;2024-02-28T03:51:26;5.90;99.90
11748;DHT22;5931;48.832;9.072;2024-02-28T03:53:51;5.90;99.90
11748;DHT22;5931;48.832;9.072;2024-02-28T03:56:26;5.90;99.90
11748;DHT22;5931;48.832;9.072;2024-02-28T03:58:53;5.90;99.90
11748;DHT22;5931;48.832;9.072;2024-02-28T04:01:19;5.80;99.90
11748;DHT22;5931;48.832;9.072;2024-02-28T04:03:45;5.80;99.90
11748;DHT22;5931;48.832;9.072;2024-02-28T04:06:11;5.90;99.90
11748;DHT22;5931;48.832;9.072;2024-02-28T04:08:37;5.90;99.90
11748;DHT22;5931;48.832;9.072;2024-02-28T04:11:03;5.80;99.90
11748;DHT22;5931;48.832;9.072;2024-02-28T04:13:29;5.80;99.90
11748;DHT22;5931;48.832;9.072;2024-02-28T04:15:55;5.80;99.90
11748;DHT22;5931;48.832;9.072;2024-02-28T04:18:21;5.80;99.90
11748;DHT22;5931;48.832;9.072;2024-02-28T04:20:47;5.80;99.90
11748;DHT22;5931;48.832;9.072;2024-02-28T04:23:12;5.80;99.90
11748;DHT22;5931;48.832;9.072;2024-02-28T04:25:38;5.80;99.90
11748;DHT22;5931;48.832;9.072;2024-02-28T04:28:06;5.70;99.90
11748;DHT22;5931;48.832;9.072;2024-02-28T04:30:33;5.70;99.90
11748;DHT22;5931;48.832;9.072;2024-02-28T04:32:59;5.70;99.90
11748;DHT22;5931;48.832;9.072;2024-02-28T04:35:24;5.60;99.90
11748;DHT22;5931;48.832;9.072;2024-02-28T04:37:50;5.60;99.90
11748;DHT22;5931;48.832;9.072;2024-02-28T04:40:16;5.60;99.90
11748;DHT22;5931;48.832;9.072;2024-02-28T04:42:42;5.60;99.90
11748;DHT22;5931;48.832;9.072;2024-02-28T04:45:11;5.60;99.90
11748;DHT22;5931;48.832;9.072;2024-02-28T04:47:37;5.50;99.90
11748;DHT22;5931;48.832;9.072;2024-02-28T04:50:04;5.50;99.90
11748;DHT22;5931;48.832;9.072;2024-02-28T04:52:32;5.50;99.90
11748;DHT22;5931;48.832;9.072;2024-02-28T04:54:58;5.50;99.90
11748;DHT22;5931;48.832;9.072;2024-02-28T04:57:23;5.50;99.90
11748;DHT22;5931;48.832;9.072;2024-02-28T04:59:49;5.60;99.90
11748;DHT22;5931;48.832;9.072;2024-02-28T05:02:15;5.60;99.90
11748;DHT22;5931;48.832;9.072;2024-02-28T05:04:42;5.60;99.90
11748;DHT22;5931;48.832;9.072;2024-02-28T05:07:08;5.50;99.90
11748;DHT22;5931;48.832;9.072;2024-02-28T05:09:34;5.50;99.90
11748;DHT22;5931;48.832;9.072;2024-02-28T05:12:01;5.50;99.90
11748;DHT22;5931;48.832;9.072;2024-02-28T05:14:27;5.50;99.90
11748;DHT22;5931;48.832;9.072;2024-02-28T05:16:53;5.50;99.90
11748;DHT22;5931;48.832;9.072;2024-02-28T05:19:18;5.40;99.90
11748;DHT22;5931;48.832;9.072;2024-02-28T05:21:45;5.40;99.90
11748;DHT22;5931;48.832;9.072;2024-02-28T05:24:11;5.40;99.90
11748;DHT22;5931;48.832;9.072;2024-02-28T05:26:37;5.40;99.90
11748;DHT22;5931;48.832;9.072;2024-02-28T05:29:04;5.40;99.90
11748;DHT22;5931;48.832;9.072;2024-02-28T05:31:31;5.40;99.90
11748;DHT22;5931;48.832;9.072;2024-02-28T05:34:00;5.50;99.90
11748;DHT22;5931;48.832;9.072;2024-02-28T05:36:29;5.50;99.90
11748;DHT22;5931;48.832;9.072;2024-02-28T05:38:56;5.40;99.90
11748;DHT22;5931;48.832;9.072;2024-02-28T05:41:23;5.40;99.90
11748;DHT22;5931;48.832;9.072;2024-02-28T05:43:49;5.40;99.90
11748;DHT22;5931;48.832;9.072;2024-02-28T05:46:16;5.40;99.90
11748;DHT22;5931;48.832;9.072;2024-02-28T05:48:45;5.40;99.90
11748;DHT22;5931;48.832;9.072;2024-02-28T05:51:12;5.40;99.90
11748;DHT22;5931;48.832;9.072;2024-02-28T05:53:39;5.40;99.90
11748;DHT22;5931;48.832;9.072;2024-02-28T05:56:06;5.40;99.90
11748;DHT22;5931;48.832;9.072;2024-02-28T05:58:43;5.40;99.90
11748;DHT22;5931;48.832;9.072;2024-02-28T06:01:11;5.30;99.90
11748;DHT22;5931;48.832;9.072;2024-02-28T06:03:38;5.30;99.90
11748;DHT22;5931;48.832;9.072;2024-02-28T06:06:04;5.30;99.90
11748;DHT22;5931;48.832;9.072;2024-02-28T06:08:34;5.20;99.90
11748;DHT22;5931;48.832;9.072;2024-02-28T06:11:01;5.30;99.90
11748;DHT22;5931;48.832;9.072;2024-02-28T06:13:27;5.30;99.90
11748;DHT22;5931;48.832;9.072;2024-02-28T06:15:55;5.30;99.90
11748;DHT22;5931;48.832;9.072;2024-02-28T06:18:21;5.20;99.90
11748;DHT22;5931;48.832;9.072;2024-02-28T06:20:48;5.20;99.90
11748;DHT22;5931;48.832;9.072;2024-02-28T06:23:14;5.20;99.90
11748;DHT22;5931;48.832;9.072;2024-02-28T06:25:40;5.20;99.90
11748;DHT22;5931;48.832;9.072;2024-02-28T06:28:06;5.20;99.90
11748;DHT22;5931;48.832;9.072;2024-02-28T06:30:33;5.20;99.90
11748;DHT22;5931;48.832;9.072;2024-02-28T06:32:59;5.20;99.90
11748;DHT22;5931;48.832;9.072;2024-02-28T06:35:26;5.20;99.90
11748;DHT22;5931;48.832;9.072;2024-02-28T06:37:51;5.30;99.90
11748;DHT22;5931;48.832;9.072;2024-02-28T06:40:17;5.30;99.90
11748;DHT22;5931;48.832;9.072;2024-02-28T06:42:44;5.30;99.90
11748;DHT22;5931;48.832;9.072;2024-02-28T06:45:10;5.30;99.90
11748;DHT22;5931;48.832;9.072;2024-02-28T06:47:36;5.40;99.90
11748;DHT22;5931;48.832;9.072;2024-02-28T06:50:03;5.30;99.90
11748;DHT22;5931;48.832;9.072;2024-02-28T06:52:30;5.30;99.90
11748;DHT22;5931;48.832;9.072;2024-02-28T06:54:56;5.40;99.90
11748;DHT22;5931;48.832;9.072;2024-02-28T06:57:21;5.40;99.90
11748;DHT22;5931;48.832;9.072;2024-02-28T06:59:47;5.40;99.90
11748;DHT22;5931;48.832;9.072;2024-02-28T07:02:14;5.40;99.90
11748;DHT22;5931;48.832;9.072;2024-02-28T07:04:41;5.40;99.90
11748;DHT22;5931;48.832;9.072;2024-02-28T07:07:07;5.40;99.90
11748;DHT22;5931;48.832;9.072;2024-02-28T07:09:34;5.40;99.90
11748;DHT22;5931;48.832;9.072;2024-02-28T07:11:59;5.50;99.90
11748;DHT22;5931;48.832;9.072;2024-02-28T07:14:27;5.40;99.90
11748;DHT22;5931;48.832;9.072;2024-02-28T07:16:52;5.40;99.90
11748;DHT22;5931;48.832;9.072;2024-02-28T07:19:19;5.50;99.90
11748;DHT22;5931;48.832;9.072;2024-02-28T07:21:44;5.50;99.90
11748;DHT22;5931;48.832;9.072;2024-02-28T07:24:10;5.50;99.90
11748;DHT22;5931;48.832;9.072;2024-02-28T07:26:36;5.60;99.90
11748;DHT22;5931;48.832;9.072;2024-02-28T07:29:02;5.70;99.90
11748;DHT22;5931;48.832;9.072;2024-02-28T07:31:28;5.70;99.90
11748;DHT22;5931;48.832;9.072;2024-02-28T07:33:54;5.80;99.90
11748;DHT22;5931;48.832;9.072;2024-02-28T07:36:20;5.80;99.90
11748;DHT22;5931;48.832;9.072;2024-02-28T07:38:46;5.80;99.90
11748;DHT22;5931;48.832;9.072;2024-02-28T07:41:12;5.80;99.90
11748;DHT22;5931;48.832;9.072;2024-02-28T07:43:42;5.80;99.90
11748;DHT22;5931;48.832;9.072;2024-02-28T07:46:09;5.80;99.90
11748;DHT22;5931;48.832;9.072;2024-02-28T07:48:37;5.90;99.90
11748;DHT22;5931;48.832;9.072;2024-02-28T07:51:06;6.00;99.90
11748;DHT22;5931;48.832;9.072;2024-02-28T07:53:32;6.00;99.90
11748;DHT22;5931;48.832;9.072;2024-02-28T07:55:58;6.00;99.90
11748;DHT22;5931;48.832;9.072;2024-02-28T07:58:24;5.90;99.90
11748;DHT22;5931;48.832;9.072;2024-02-28T08:00:50;5.90;99.90
11748;DHT22;5931;48.832;9.072;2024-02-28T08:03:18;5.90;99.90
11748;DHT22;5931;48.832;9.072;2024-02-28T08:05:44;6.00;99.90
11748;DHT22;5931;48.832;9.072;2024-02-28T08:08:10;5.90;99.90
11748;DHT22;5931;48.832;9.072;2024-02-28T08:10:37;5.90;99.90
11748;DHT22;5931;48.832;9.072;2024-02-28T08:13:04;5.90;99.90
11748;DHT22;5931;48.832;9.072;2024-02-28T08:15:30;5.90;99.90
11748;DHT22;5931;48.832;9.072;2024-02-28T08:17:56;5.90;99.90
11748;DHT22;5931;48.832;9.072;2024-02-28T08:20:21;6.00;99.90
11748;DHT22;5931;48.832;9.072;2024-02-28T08:22:47;6.10;99.90
11748;DHT22;5931;48.832;9.072;2024-02-28T08:25:13;6.00;99.90
11748;DHT22;5931;48.832;9.072;2024-02-28T08:27:39;6.00;99.90
11748;DHT22;5931;48.832;9.072;2024-02-28T08:30:06;6.10;99.90
11748;DHT22;5931;48.832;9.072;2024-02-28T08:32:32;6.00;99.90
11748;DHT22;5931;48.832;9.072;2024-02-28T08:34:58;6.00;99.90
11748;DHT22;5931;48.832;9.072;2024-02-28T08:37:24;6.10;99.90
11748;DHT22;5931;48.832;9.072;2024-02-28T08:39:50;6.20;99.90
11748;DHT22;5931;48.832;9.072;2024-02-28T08:42:16;6.10;99.90
11748;DHT22;5931;48.832;9.072;2024-02-28T08:44:42;6.20;99.90
11748;DHT22;5931;48.832;9.072;2024-02-28T08:47:08;6.20;99.90
11748;DHT22;5931;48.832;9.072;2024-02-28T08:49:35;6.30;99.90
11748;DHT22;5931;48.832;9.072;2024-02-28T08:52:02;6.50;99.90
11748;DHT22;5931;48.832;9.072;2024-02-28T08:54:28;6.70;99.90
11748;DHT22;5931;48.832;9.072;2024-02-28T08:56:55;6.80;99.90
11748;DHT22;5931;48.832;9.072;2024-02-28T08:59:21;6.90;99.90
11748;DHT22;5931;48.832;9.072;2024-02-28T09:01:48;6.60;99.90
11748;DHT22;5931;48.832;9.072;2024-02-28T09:04:14;6.70;99.90
11748;DHT22;5931;48.832;9.072;2024-02-28T09:06:40;6.80;99.90
11748;DHT22;5931;48.832;9.072;2024-02-28T09:09:06;6.90;99.90
11748;DHT22;5931;48.832;9.072;2024-02-28T09:11:32;6.70;99.90
11748;DHT22;5931;48.832;9.072;2024-02-28T09:13:58;6.70;99.90
11748;DHT22;5931;48.832;9.072;2024-02-28T09:16:24;6.70;99.90
11748;DHT22;5931;48.832;9.072;2024-02-28T09:18:50;6.90;99.90
11748;DHT22;5931;48.832;9.072;2024-02-28T09:21:15;7.00;99.90
11748;DHT22;5931;48.832;9.072;2024-02-28T09:23:41;6.90;99.90
11748;DHT22;5931;48.832;9.072;2024-02-28T09:26:07;6.90;99.90
11748;DHT22;5931;48.832;9.072;2024-02-28T09:28:33;6.80;99.90
11748;DHT22;5931;48.832;9.072;2024-02-28T09:30:59;6.90;99.90
11748;DHT22;5931;48.832;9.072;2024-02-28T09:33:25;6.90;99.90
11748;DHT22;5931;48.832;9.072;2024-02-28T09:35:51;6.90;99.90
11748;DHT22;5931;48.832;9.072;2024-02-28T09:38:17;7.00;99.90
11748;DHT22;5931;48.832;9.072;2024-02-28T09:40:46;7.00;99.90
11748;DHT22;5931;48.832;9.072;2024-02-28T09:43:25;7.00;99.90
11748;DHT22;5931;48.832;9.072;2024-02-28T09:46:00;7.20;99.90
11748;DHT22;5931;48.832;9.072;2024-02-28T09:48:29;7.50;99.90
11748;DHT22;5931;48.832;9.072;2024-02-28T09:50:57;7.40;99.90
11748;DHT22;5931;48.832;9.072;2024-02-28T09:53:23;7.50;99.90
11748;DHT22;5931;48.832;9.072;2024-02-28T09:55:52;7.60;99.90
11748;DHT22;5931;48.832;9.072;2024-02-28T09:58:19;7.80;99.90
11748;DHT22;5931;48.832;9.072;2024-02-28T10:00:47;8.00;99.90
11748;DHT22;5931;48.832;9.072;2024-02-28T10:03:19;8.10;99.90
11748;DHT22;5931;48.832;9.072;2024-02-28T10:05:48;7.80;99.90
11748;DHT22;5931;48.832;9.072;2024-02-28T10:08:14;7.90;99.90
11748;DHT22;5931;48.832;9.072;2024-02-28T10:10:47;8.10;99.90
11748;DHT22;5931;48.832;9.072;2024-02-28T10:13:16;8.40;99.90
11748;DHT22;5931;48.832;9.072;2024-02-28T10:15:42;8.30;99.90
11748;DHT22;5931;48.832;9.072;2024-02-28T10:18:08;8.10;99.90
11748;DHT22;5931;48.832;9.072;2024-02-28T10:20:34;8.30;99.90
11748;DHT22;5931;48.832;9.072;2024-02-28T10:23:04;8.10;99.90
11748;DHT22;5931;48.832;9.072;2024-02-28T10:25:30;8.20;99.90
11748;DHT22;5931;48.832;9.072;2024-02-28T10:28:00;8.20;99.90
11748;DHT22;5931;48.832;9.072;2024-02-28T10:30:26;8.30;99.90
11748;DHT22;5931;48.832;9.072;2024-02-28T10:32:52;8.20;99.90
11748;DHT22;5931;48.832;9.072;2024-02-28T10:35:18;8.30;99.90
11748;DHT22;5931;48.832;9.072;2024-02-28T10:37:45;8.40;99.90
11748;DHT22;5931;48.832;9.072;2024-02-28T10:40:13;8.30;99.90
11748;DHT22;5931;48.832;9.072;2024-02-28T10:42:42;8.40;99.90
11748;DHT22;5931;48.832;9.072;2024-02-28T10:45:09;8.20;99.90
11748;DHT22;5931;48.832;9.072;2024-02-28T10:47:41;8.20;99.90
11748;DHT22;5931;48.832;9.072;2024-02-28T10:50:07;8.10;99.90
11748;DHT22;5931;48.832;9.072;2024-02-28T10:52:34;8.20;99.90
11748;DHT22;5931;48.832;9.072;2024-02-28T10:55:02;8.20;99.90
11748;DHT22;5931;48.832;9.072;2024-02-28T10:57:28;8.20;99.90
11748;DHT22;5931;48.832;9.072;2024-02-28T10:59:55;8.30;99.90
11748;DHT22;5931;48.832;9.072;2024-02-28T11:02:22;8.50;99.90
11748;DHT22;5931;48.832;9.072;2024-02-28T11:04:52;8.70;99.90
11748;DHT22;5931;48.832;9.072;2024-02-28T11:07:21;8.80;99.90
11748;DHT22;5931;48.832;9.072;2024-02-28T11:09:47;8.90;99.90
11748;DHT22;5931;48.832;9.072;2024-02-28T11:12:27;8.90;99.90
11748;DHT22;5931;48.832;9.072;2024-02-28T11:15:00;8.80;99.90
11748;DHT22;5931;48.832;9.072;2024-02-28T11:17:32;8.80;99.90
11748;DHT22;5931;48.832;9.072;2024-02-28T11:19:58;8.50;99.90
11748;DHT22;5931;48.832;9.072;2024-02-28T11:22:28;8.20;99.90
11748;DHT22;5931;48.832;9.072;2024-02-28T11:24:54;8.00;99.90
11748;DHT22;5931;48.832;9.072;2024-02-28T11:27:20;7.90;99.90
11748;DHT22;5931;48.832;9.072;2024-02-28T11:29:45;7.70;99.90
11748;DHT22;5931;48.832;9.072;2024-02-28T11:32:15;7.70;99.90
11748;DHT22;5931;48.832;9.072;2024-02-28T11:34:42;7.70;99.90
11748;DHT22;5931;48.832;9.072;2024-02-28T11:37:11;7.80;99.90
11748;DHT22;5931;48.832;9.072;2024-02-28T11:39:37;7.70;99.90
11748;DHT22;5931;48.832;9.072;2024-02-28T11:42:14;7.80;99.90
11748;DHT22;5931;48.832;9.072;2024-02-28T11:44:40;7.90;99.90
11748;DHT22;5931;48.832;9.072;2024-02-28T11:47:08;7.80;99.90
11748;DHT22;5931;48.832;9.072;2024-02-28T11:49:35;7.70;99.90
11748;DHT22;5931;48.832;9.072;2024-02-28T11:52:00;7.60;99.90
11748;DHT22;5931;48.832;9.072;2024-02-28T11:54:26;7.60;99.90
11748;DHT22;5931;48.832;9.072;2024-02-28T11:56:53;7.60;99.90
11748;DHT22;5931;48.832;9.072;2024-02-28T11:59:19;7.90;99.90
11748;DHT22;5931;48.832;9.072;2024-02-28T12:01:45;8.20;99.90
11748;DHT22;5931;48.832;9.072;2024-02-28T12:04:12;8.30;99.90
11748;DHT22;5931;48.832;9.072;2024-02-28T12:06:40;8.40;99.90
11748;DHT22;5931;48.832;9.072;2024-02-28T12:09:11;8.60;99.90
11748;DHT22;5931;48.832;9.072;2024-02-28T12:11:37;8.30;99.90
11748;DHT22;5931;48.832;9.072;2024-02-28T12:14:04;8.30;99.90
11748;DHT22;5931;48.832;9.072;2024-02-28T12:16:32;8.00;99.90
11748;DHT22;5931;48.832;9.072;2024-02-28T12:18:58;8.00;99.90
11748;DHT22;5931;48.832;9.072;2024-02-28T12:21:24;8.00;99.90
11748;DHT22;5931;48.832;9.072;2024-02-28T12:23:50;8.10;99.90
11748;DHT22;5931;48.832;9.072;2024-02-28T12:26:20;8.30;99.90
11748;DHT22;5931;48.832;9.072;2024-02-28T12:28:46;8.20;99.90
11748;DHT22;5931;48.832;9.072;2024-02-28T12:31:12;8.10;99.90
11748;DHT22;5931;48.832;9.072;2024-02-28T12:33:39;8.10;99.90
11748;DHT22;5931;48.832;9.072;2024-02-28T12:36:05;8.30;99.90
11748;DHT22;5931;48.832;9.072;2024-02-28T12:38:31;8.40;99.90
11748;DHT22;5931;48.832;9.072;2024-02-28T12:40:57;8.40;99.90
11748;DHT22;5931;48.832;9.072;2024-02-28T12:43:23;8.30;99.90
11748;DHT22;5931;48.832;9.072;2024-02-28T12:45:49;8.50;99.90
11748;DHT22;5931;48.832;9.072;2024-02-28T12:48:15;8.50;99.90
11748;DHT22;5931;48.832;9.072;2024-02-28T12:50:41;8.70;99.90
11748;DHT22;5931;48.832;9.072;2024-02-28T12:53:07;8.70;99.90
11748;DHT22;5931;48.832;9.072;2024-02-28T12:55:32;8.80;99.90
11748;DHT22;5931;48.832;9.072;2024-02-28T12:57:58;8.60;99.90
11748;DHT22;5931;48.832;9.072;2024-02-28T13:00:26;8.70;99.90
11748;DHT22;5931;48.832;9.072;2024-02-28T13:02:52;8.70;99.90
11748;DHT22;5931;48.832;9.072;2024-02-28T13:05:18;8.70;99.90
11748;DHT22;5931;48.832;9.072;2024-02-28T13:07:44;8.70;99.90
11748;DHT22;5931;48.832;9.072;2024-02-28T13:10:09;8.50;99.90
11748;DHT22;5931;48.832;9.072;2024-02-28T13:12:35;8.60;99.90
11748;DHT22;5931;48.832;9.072;2024-02-28T13:15:01;8.20;99.90
11748;DHT22;5931;48.832;9.072;2024-02-28T13:17:28;8.10;99.90
11748;DHT22;5931;48.832;9.072;2024-02-28T13:19:54;8.20;99.90
11748;DHT22;5931;48.832;9.072;2024-02-28T13:22:20;8.20;99.90
11748;DHT22;5931;48.832;9.072;2024-02-28T13:24:46;8.10;99.90
11748;DHT22;5931;48.832;9.072;2024-02-28T13:27:11;7.80;99.90
11748;DHT22;5931;48.832;9.072;2024-02-28T13:29:37;8.00;99.90
11748;DHT22;5931;48.832;9.072;2024-02-28T13:32:03;8.20;99.90
11748;DHT22;5931;48.832;9.072;2024-02-28T13:34:29;8.00;99.90
11748;DHT22;5931;48.832;9.072;2024-02-28T13:36:55;7.80;99.90
11748;DHT22;5931;48.832;9.072;2024-02-28T13:39:21;7.90;99.90
11748;DHT22;5931;48.832;9.072;2024-02-28T13:41:49;8.20;99.90
11748;DHT22;5931;48.832;9.072;2024-02-28T13:44:17;8.40;99.90
11748;DHT22;5931;48.832;9.072;2024-02-28T13:46:49;8.40;99.90
11748;DHT22;5931;48.832;9.072;2024-02-28T13:49:16;8.40;99.90
11748;DHT22;5931;48.832;9.072;2024-02-28T13:51:42;8.50;99.90
11748;DHT22;5931;48.832;9.072;2024-02-28T13:54:08;8.80;99.90
11748;DHT22;5931;48.832;9.072;2024-02-28T13:56:34;9.10;99.90
11748;DHT22;5931;48.832;9.072;2024-02-28T13:59:00;9.20;99.90
11748;DHT22;5931;48.832;9.072;2024-02-28T14:01:26;9.00;99.90
11748;DHT22;5931;48.832;9.072;2024-02-28T14:03:52;9.30;99.90
11748;DHT22;5931;48.832;9.072;2024-02-28T14:06:18;9.30;99.90
11748;DHT22;5931;48.832;9.072;2024-02-28T14:08:44;9.20;99.90
11748;DHT22;5931;48.832;9.072;2024-02-28T14:11:10;8.70;99.90
11748;DHT22;5931;48.832;9.072;2024-02-28T14:13:36;8.60;99.90
11748;DHT22;5931;48.832;9.072;2024-02-28T14:16:05;8.60;99.90
11748;DHT22;5931;48.832;9.072;2024-02-28T14:18:31;8.60;99.90
11748;DHT22;5931;48.832;9.072;2024-02-28T14:20:57;8.80;99.90
11748;DHT22;5931;48.832;9.072;2024-02-28T14:23:22;8.80;99.90
11748;DHT22;5931;48.832;9.072;2024-02-28T14:25:48;8.80;99.90
11748;DHT22;5931;48.832;9.072;2024-02-28T14:28:14;8.80;99.90
11748;DHT22;5931;48.832;9.072;2024-02-28T14:30:40;8.70;99.90
11748;DHT22;5931;48.832;9.072;2024-02-28T14:33:06;8.80;99.90
11748;DHT22;5931;48.832;9.072;2024-02-28T14:35:32;8.80;99.90
11748;DHT22;5931;48.832;9.072;2024-02-28T14:37:58;8.90;99.90
11748;DHT22;5931;48.832;9.072;2024-02-28T14:40:24;8.90;99.90
11748;DHT22;5931;48.832;9.072;2024-02-28T14:42:51;8.80;99.90
11748;DHT22;5931;48.832;9.072;2024-02-28T14:45:17;8.70;99.90
11748;DHT22;5931;48.832;9.072;2024-02-28T14:47:43;8.70;99.90
11748;DHT22;5931;48.832;9.072;2024-02-28T14:50:10;8.80;99.90
11748;DHT22;5931;48.832;9.072;2024-02-28T14:52:40;8.80;99.90
11748;DHT22;5931;48.832;9.072;2024-02-28T14:55:07;8.80;99.90
11748;DHT22;5931;48.832;9.072;2024-02-28T14:57:37;8.70;99.90
11748;DHT22;5931;48.832;9.072;2024-02-28T15:00:04;8.70;99.90
11748;DHT22;5931;48.832;9.072;2024-02-28T15:02:35;8.70;99.90
11748;DHT22;5931;48.832;9.072;2024-02-28T15:05:01;8.50;99.90
11748;DHT22;5931;48.832;9.072;2024-02-28T15:07:35;8.60;99.90
11748;DHT22;5931;48.832;9.072;2024-02-28T15:10:02;8.60;99.90
11748;DHT22;5931;48.832;9.072;2024-02-28T15:12:33;8.60;99.90
11748;DHT22;5931;48.832;9.072;2024-02-28T15:15:03;8.60;99.90
11748;DHT22;5931;48.832;9.072;2024-02-28T15:17:30;8.80;99.90
11748;DHT22;5931;48.832;9.072;2024-02-28T15:19:57;8.90;99.90
11748;DHT22;5931;48.832;9.072;2024-02-28T15:22:23;8.90;99.90
11748;DHT22;5931;48.832;9.072;2024-02-28T15:24:49;8.90;99.90
11748;DHT22;5931;48.832;9.072;2024-02-28T15:27:14;9.00;99.90
11748;DHT22;5931;48.832;9.072;2024-02-28T15:29:40;9.00;99.90
11748;DHT22;5931;48.832;9.072;2024-02-28T15:32:07;9.10;99.90
11748;DHT22;5931;48.832;9.072;2024-02-28T15:34:33;9.10;99.90
11748;DHT22;5931;48.832;9.072;2024-02-28T15:36:58;9.10;99.90
11748;DHT22;5931;48.832;9.072;2024-02-28T15:39:24;8.90;99.90
11748;DHT22;5931;48.832;9.072;2024-02-28T15:41:50;8.80;99.90
11748;DHT22;5931;48.832;9.072;2024-02-28T15:44:17;8.60;99.90
11748;DHT22;5931;48.832;9.072;2024-02-28T15:46:43;8.60;99.90
11748;DHT22;5931;48.832;9.072;2024-02-28T15:49:09;8.60;99.90
11748;DHT22;5931;48.832;9.072;2024-02-28T15:51:35;8.40;99.90
11748;DHT22;5931;48.832;9.072;2024-02-28T15:54:01;8.40;99.90
11748;DHT22;5931;48.832;9.072;2024-02-28T15:56:27;8.20;99.90
11748;DHT22;5931;48.832;9.072;2024-02-28T15:58:53;8.10;99.90